createdAt,value
2018-09-25T00:00:54.706Z,6.74
2018-09-25T00:03:28.516Z,6.75
2018-09-25T00:06:02.377Z,6.75
2018-09-25T00:08:36.250Z,6.75
2018-09-25T00:11:09.821Z,6.63
2018-09-25T00:13:43.749Z,6.62
2018-09-25T00:16:17.622Z,6.54
2018-09-25T00:18:51.598Z,6.54
2018-09-25T00:21:25.610Z,6.50
2018-09-25T00:23:59.509Z,6.45
2018-09-25T00:26:33.301Z,6.42
2018-09-25T00:29:07.184Z,6.37
2018-09-25T00:31:40.983Z,6.31
2018-09-25T00:34:14.846Z,6.30
2018-09-25T00:36:48.744Z,6.37
2018-09-25T00:39:22.440Z,6.31
2018-09-25T00:41:56.262Z,6.26
2018-09-25T00:44:30.150Z,6.27
2018-09-25T00:47:03.861Z,6.24
2018-09-25T00:49:37.569Z,6.21
2018-09-25T00:52:11.446Z,6.17
2018-09-25T00:54:45.098Z,6.18
2018-09-25T00:57:19.121Z,6.21
2018-09-25T00:59:53.131Z,6.23
2018-09-25T01:02:26.762Z,6.31
2018-09-25T01:05:00.701Z,6.35
2018-09-25T01:07:34.494Z,6.29
2018-09-25T01:10:08.501Z,6.19
2018-09-25T01:12:42.178Z,6.08
2018-09-25T01:15:16.170Z,5.96
2018-09-25T01:17:50.020Z,6.05
2018-09-25T01:20:23.822Z,5.96
2018-09-25T01:22:57.667Z,5.88
2018-09-25T01:25:31.369Z,5.82
2018-09-25T01:28:05.161Z,5.72
2018-09-25T01:30:38.882Z,5.59
2018-09-25T01:33:12.790Z,5.58
2018-09-25T01:35:46.557Z,5.62
2018-09-25T01:38:20.179Z,5.67
2018-09-25T01:40:54.141Z,5.62
2018-09-25T01:43:28.116Z,5.61
2018-09-25T01:46:01.974Z,5.59
2018-09-25T01:48:35.637Z,5.63
2018-09-25T01:51:09.302Z,5.60
2018-09-25T01:53:43.118Z,5.54
2018-09-25T01:56:16.742Z,5.63
2018-09-25T01:58:50.378Z,5.70
2018-09-25T02:01:24.245Z,5.73
2018-09-25T02:03:58.125Z,5.64
2018-09-25T02:06:31.827Z,5.59
2018-09-25T02:09:05.589Z,5.56
2018-09-25T02:11:39.454Z,5.64
2018-09-25T02:14:13.407Z,5.60
2018-09-25T02:16:47.290Z,5.61
2018-09-25T02:19:20.962Z,5.53
2018-09-25T02:21:54.695Z,5.51
2018-09-25T02:24:28.662Z,5.48
2018-09-25T02:27:02.472Z,5.40
2018-09-25T02:29:36.302Z,5.34
2018-09-25T02:32:10.105Z,5.27
2018-09-25T02:34:43.932Z,5.23
2018-09-25T02:37:17.835Z,5.23
2018-09-25T02:39:51.634Z,5.22
2018-09-25T02:42:30.042Z,5.28
2018-09-25T02:45:03.789Z,5.46
2018-09-25T02:47:38.551Z,5.37
2018-09-25T02:50:12.345Z,5.26
2018-09-25T02:52:46.054Z,5.27
2018-09-25T02:55:19.799Z,5.24
2018-09-25T02:57:53.561Z,5.18
2018-09-25T03:00:28.329Z,5.21
2018-09-25T03:03:05.714Z,5.12
2018-09-25T03:05:40.408Z,5.07
2018-09-25T03:08:15.419Z,5.04
2018-09-25T03:10:49.179Z,5.09
2018-09-25T03:13:22.748Z,5.16
2018-09-25T03:15:56.552Z,5.27
2018-09-25T03:18:30.312Z,5.16
2018-09-25T03:21:03.998Z,5.01
2018-09-25T03:23:37.722Z,4.94
2018-09-25T03:26:12.642Z,4.83
2018-09-25T03:28:46.448Z,4.78
2018-09-25T03:31:20.146Z,4.74
2018-09-25T03:33:53.963Z,4.69
2018-09-25T03:36:27.762Z,4.71
2018-09-25T03:39:01.694Z,4.67
2018-09-25T03:41:35.494Z,4.68
2018-09-25T03:44:09.477Z,4.69
2018-09-25T03:46:43.325Z,4.69
2018-09-25T03:49:17.034Z,4.68
2018-09-25T03:51:50.893Z,4.64
2018-09-25T03:54:24.708Z,4.63
2018-09-25T03:56:58.534Z,4.57
2018-09-25T03:59:32.729Z,4.58
2018-09-25T04:02:06.753Z,4.52
2018-09-25T04:04:40.582Z,4.48
2018-09-25T04:07:14.518Z,4.47
2018-09-25T04:09:48.508Z,4.41
2018-09-25T04:12:22.218Z,4.38
2018-09-25T04:14:56.651Z,4.28
2018-09-25T04:17:30.445Z,4.24
2018-09-25T04:20:04.339Z,4.24
2018-09-25T04:22:38.054Z,4.22
2018-09-25T04:25:11.928Z,4.32
2018-09-25T04:27:45.591Z,4.33
2018-09-25T04:30:19.501Z,4.41
2018-09-25T04:32:53.146Z,4.44
2018-09-25T04:35:27.016Z,4.41
2018-09-25T04:38:00.603Z,4.36
2018-09-25T04:40:34.473Z,4.43
2018-09-25T04:43:08.398Z,4.42
2018-09-25T04:45:42.193Z,4.35
2018-09-25T04:48:16.044Z,4.33
2018-09-25T04:50:50.064Z,4.33
2018-09-25T04:53:24.024Z,4.30
2018-09-25T04:55:57.932Z,4.27
2018-09-25T04:58:31.678Z,4.22
2018-09-25T05:01:05.438Z,4.21
2018-09-25T05:03:39.128Z,4.19
2018-09-25T05:06:12.825Z,4.22
2018-09-25T05:08:46.797Z,4.16
2018-09-25T05:11:20.611Z,4.16
2018-09-25T05:13:54.578Z,4.16
2018-09-25T05:16:28.386Z,4.19
2018-09-25T05:19:02.121Z,4.24
2018-09-25T05:21:35.937Z,4.18
2018-09-25T05:24:09.686Z,4.12
2018-09-25T05:26:43.295Z,4.17
2018-09-25T05:29:17.061Z,4.27
2018-09-25T05:31:50.854Z,4.27
2018-09-25T05:34:24.569Z,4.27
2018-09-25T05:36:58.393Z,4.38
2018-09-25T05:39:32.229Z,4.41
2018-09-25T05:42:05.869Z,4.43
2018-09-25T05:44:39.760Z,4.47
2018-09-25T05:47:13.809Z,4.46
2018-09-25T05:49:47.631Z,4.50
2018-09-25T05:52:21.576Z,4.63
2018-09-25T05:54:55.225Z,4.74
2018-09-25T05:57:29.061Z,4.80
2018-09-25T06:00:02.730Z,4.93
2018-09-25T06:02:36.502Z,4.98
2018-09-25T06:05:10.363Z,4.97
2018-09-25T06:07:44.145Z,5.00
2018-09-25T06:10:17.911Z,4.99
2018-09-25T06:12:51.774Z,5.09
2018-09-25T06:15:25.379Z,5.09
2018-09-25T06:17:59.242Z,5.16
2018-09-25T06:20:33.235Z,5.28
2018-09-25T06:23:07.027Z,5.33
2018-09-25T06:25:40.748Z,5.39
2018-09-25T06:28:14.749Z,5.43
2018-09-25T06:30:48.619Z,5.48
2018-09-25T06:33:22.180Z,5.56
2018-09-25T06:35:55.974Z,5.65
2018-09-25T06:38:29.940Z,5.75
2018-09-25T06:41:03.787Z,5.82
2018-09-25T06:43:37.849Z,5.90
2018-09-25T06:46:11.718Z,5.97
2018-09-25T06:48:45.414Z,6.06
2018-09-25T06:51:19.105Z,6.21
2018-09-25T06:53:52.827Z,6.30
2018-09-25T06:56:26.806Z,6.41
2018-09-25T06:59:00.738Z,6.51
2018-09-25T07:01:34.426Z,6.63
2018-09-25T07:04:08.354Z,6.76
2018-09-25T07:06:42.392Z,6.86
2018-09-25T07:09:16.789Z,6.96
2018-09-25T07:11:50.533Z,7.11
2018-09-25T07:14:24.487Z,7.19
2018-09-25T07:16:58.397Z,7.33
2018-09-25T07:19:32.238Z,7.43
2018-09-25T07:22:06.230Z,7.50
2018-09-25T07:24:39.967Z,7.53
2018-09-25T07:27:14.523Z,7.62
2018-09-25T07:29:48.384Z,7.65
2018-09-25T07:32:22.241Z,7.67
2018-09-25T07:34:56.043Z,7.79
2018-09-25T07:37:29.989Z,7.90
2018-09-25T07:40:03.944Z,8.05
2018-09-25T07:42:37.885Z,8.16
2018-09-25T07:45:11.751Z,8.25
2018-09-25T07:47:45.699Z,8.37
2018-09-25T07:50:19.586Z,8.49
2018-09-25T07:52:53.197Z,8.62
2018-09-25T07:55:27.169Z,8.78
2018-09-25T07:58:00.701Z,8.90
2018-09-25T08:00:34.641Z,9.01
2018-09-25T08:03:08.638Z,9.12
2018-09-25T08:05:42.479Z,9.20
2018-09-25T08:08:16.429Z,9.20
2018-09-25T08:10:50.567Z,9.25
2018-09-25T08:13:24.245Z,9.35
2018-09-25T08:15:58.156Z,9.42
2018-09-25T08:18:31.890Z,9.50
2018-09-25T08:21:05.729Z,9.62
2018-09-25T08:23:39.486Z,9.76
2018-09-25T08:26:13.178Z,9.89
2018-09-25T08:28:46.951Z,9.88
2018-09-25T08:31:20.936Z,9.93
2018-09-25T08:33:54.733Z,10.03
2018-09-25T08:36:28.409Z,10.09
2018-09-25T08:39:02.311Z,10.20
2018-09-25T08:41:36.046Z,10.33
2018-09-25T08:44:09.833Z,10.36
2018-09-25T08:46:43.641Z,10.49
2018-09-25T08:49:17.250Z,10.60
2018-09-25T08:51:51.175Z,10.71
2018-09-25T08:54:24.745Z,10.88
2018-09-25T08:56:58.585Z,10.97
2018-09-25T08:59:32.306Z,11.19
2018-09-25T09:02:06.121Z,11.34
2018-09-25T09:04:40.072Z,11.42
2018-09-25T09:07:20.682Z,11.58
2018-09-25T09:09:54.443Z,11.77
2018-09-25T09:12:28.221Z,11.94
2018-09-25T09:15:02.134Z,12.12
2018-09-25T09:17:35.903Z,12.38
2018-09-25T09:20:09.738Z,12.71
2018-09-25T09:22:43.641Z,12.80
2018-09-25T09:25:17.454Z,13.00
2018-09-25T09:27:51.349Z,13.19
2018-09-25T09:30:25.146Z,13.60
2018-09-25T09:32:58.867Z,14.14
2018-09-25T09:35:32.789Z,14.96
2018-09-25T09:38:06.603Z,15.64
2018-09-25T09:40:40.536Z,16.29
2018-09-25T09:43:14.531Z,16.80
2018-09-25T09:45:48.556Z,17.16
2018-09-25T09:48:22.181Z,17.40
2018-09-25T09:50:55.973Z,17.68
2018-09-25T09:53:29.798Z,18.13
2018-09-25T09:56:03.738Z,18.94
2018-09-25T09:58:37.325Z,19.01
2018-09-25T10:01:11.085Z,19.29
2018-09-25T10:03:45.453Z,19.70
2018-09-25T10:06:19.251Z,19.53
2018-09-25T10:08:52.962Z,19.77
2018-09-25T10:11:26.809Z,20.32
2018-09-25T10:14:00.540Z,20.44
2018-09-25T10:16:34.338Z,20.60
2018-09-25T10:19:08.320Z,20.53
2018-09-25T10:21:42.273Z,21.01
2018-09-25T10:24:16.189Z,21.22
2018-09-25T10:26:49.877Z,21.35
2018-09-25T10:29:23.789Z,21.50
2018-09-25T10:31:57.586Z,21.21
2018-09-25T10:34:31.402Z,21.33
2018-09-25T10:37:05.247Z,21.81
2018-09-25T10:39:39.086Z,21.13
2018-09-25T10:42:12.978Z,21.22
2018-09-25T10:44:46.769Z,21.94
2018-09-25T10:47:20.579Z,22.07
2018-09-25T10:49:54.674Z,23.12
2018-09-25T10:52:28.386Z,22.87
2018-09-25T10:55:02.183Z,22.52
2018-09-25T10:57:35.851Z,23.01
2018-09-25T11:00:09.713Z,23.44
2018-09-25T11:02:43.333Z,23.07
2018-09-25T11:05:17.044Z,23.81
2018-09-25T11:07:51.025Z,24.40
2018-09-25T11:10:24.732Z,25.15
2018-09-25T11:12:58.617Z,25.42
2018-09-25T11:15:32.498Z,24.77
2018-09-25T11:18:06.129Z,26.06
2018-09-25T11:20:39.965Z,26.11
2018-09-25T11:23:13.714Z,26.18
2018-09-25T11:25:47.414Z,25.37
2018-09-25T11:28:21.154Z,26.06
2018-09-25T11:30:55.009Z,26.67
2018-09-25T11:33:28.899Z,27.31
2018-09-25T11:36:02.845Z,27.83
2018-09-25T11:38:36.716Z,28.35
2018-09-25T11:41:10.474Z,27.45
2018-09-25T11:43:44.251Z,27.31
2018-09-25T11:46:18.066Z,28.04
2018-09-25T11:48:51.832Z,28.92
2018-09-25T11:51:25.583Z,28.59
2018-09-25T11:53:59.491Z,29.65
2018-09-25T11:56:33.250Z,29.64
2018-09-25T11:59:07.210Z,30.18
2018-09-25T12:01:41.111Z,31.29
2018-09-25T12:04:14.897Z,31.63
2018-09-25T12:06:48.655Z,31.12
2018-09-25T12:09:22.445Z,31.45
2018-09-25T12:11:56.030Z,32.24
2018-09-25T12:14:29.870Z,32.42
2018-09-25T12:17:03.705Z,31.90
2018-09-25T12:19:37.708Z,32.45
2018-09-25T12:22:11.668Z,32.49
2018-09-25T12:24:45.675Z,30.38
2018-09-25T12:27:19.378Z,32.26
2018-09-25T12:29:52.937Z,33.26
2018-09-25T12:32:26.668Z,34.09
2018-09-25T12:35:00.306Z,34.09
2018-09-25T12:37:34.209Z,34.23
2018-09-25T12:40:08.056Z,34.40
2018-09-25T12:42:41.862Z,34.49
2018-09-25T12:45:15.794Z,35.51
2018-09-25T12:47:49.636Z,35.15
2018-09-25T12:50:23.555Z,33.97
2018-09-25T12:52:57.290Z,33.70
2018-09-25T12:55:30.907Z,34.28
2018-09-25T12:58:04.723Z,33.52
2018-09-25T13:00:38.625Z,35.03
2018-09-25T13:03:12.760Z,35.52
2018-09-25T13:05:46.539Z,34.96
2018-09-25T13:08:20.350Z,35.20
2018-09-25T13:10:54.345Z,35.52
2018-09-25T13:13:27.924Z,34.75
2018-09-25T13:16:01.686Z,35.52
2018-09-25T13:18:35.720Z,35.84
2018-09-25T13:21:09.704Z,36.31
2018-09-25T13:23:43.716Z,36.44
2018-09-25T13:26:17.570Z,37.13
2018-09-25T13:28:51.313Z,36.62
2018-09-25T13:31:25.036Z,36.31
2018-09-25T13:33:58.817Z,37.00
2018-09-25T13:36:32.718Z,37.80
2018-09-25T13:39:06.503Z,37.73
2018-09-25T13:41:40.337Z,36.96
2018-09-25T13:44:14.234Z,36.70
2018-09-25T13:46:47.949Z,37.94
2018-09-25T13:49:21.885Z,37.06
2018-09-25T13:51:55.737Z,36.37
2018-09-25T13:54:29.545Z,37.34
2018-09-25T13:57:03.385Z,38.30
2018-09-25T13:59:37.273Z,37.62
2018-09-25T14:02:11.054Z,39.36
2018-09-25T14:04:44.793Z,38.64
2018-09-25T14:07:18.604Z,37.16
2018-09-25T14:09:52.195Z,37.97
2018-09-25T14:12:26.110Z,37.62
2018-09-25T14:14:59.856Z,38.33
2018-09-25T14:17:33.781Z,38.64
2018-09-25T14:20:07.735Z,37.98
2018-09-25T14:22:41.725Z,37.75
2018-09-25T14:25:15.964Z,37.05
2018-09-25T14:27:49.884Z,36.40
2018-09-25T14:30:23.681Z,37.22
2018-09-25T14:32:57.313Z,36.69
2018-09-25T14:35:31.202Z,38.16
2018-09-25T14:38:05.080Z,36.82
2018-09-25T14:40:38.916Z,37.02
2018-09-25T14:43:12.840Z,37.17
2018-09-25T14:45:46.646Z,35.89
2018-09-25T14:48:20.316Z,37.07
2018-09-25T14:50:54.250Z,36.40
2018-09-25T14:53:28.101Z,36.02
2018-09-25T14:56:01.865Z,36.10
2018-09-25T14:58:35.751Z,37.97
2018-09-25T15:01:09.602Z,37.83
2018-09-25T15:03:44.570Z,38.33
2018-09-25T15:06:18.428Z,37.78
2018-09-25T15:08:52.313Z,36.59
2018-09-25T15:11:26.070Z,36.78
2018-09-25T15:13:59.764Z,37.11
2018-09-25T15:16:33.575Z,36.18
2018-09-25T15:19:07.338Z,36.51
2018-09-25T15:21:41.420Z,37.91
2018-09-25T15:24:15.425Z,37.27
2018-09-25T15:26:49.432Z,37.41
2018-09-25T15:29:22.994Z,35.77
2018-09-25T15:31:56.857Z,34.38
2018-09-25T15:34:30.525Z,33.53
2018-09-25T15:37:04.337Z,32.65
2018-09-25T15:39:38.054Z,33.01
2018-09-25T15:42:12.023Z,32.91
2018-09-25T15:44:49.045Z,31.60
2018-09-25T15:47:23.580Z,31.90
2018-09-25T15:49:57.270Z,31.60
2018-09-25T15:52:31.044Z,31.37
2018-09-25T15:55:06.358Z,32.50
2018-09-25T15:57:42.520Z,32.32
2018-09-25T16:00:16.602Z,30.35
2018-09-25T16:02:50.704Z,30.95
2018-09-25T16:05:24.365Z,30.04
2018-09-25T16:07:58.337Z,25.68
2018-09-25T16:10:32.250Z,23.24
2018-09-25T16:13:05.862Z,21.90
2018-09-25T16:15:39.642Z,20.96
2018-09-25T16:18:13.470Z,20.42
2018-09-25T16:20:47.465Z,19.91
2018-09-25T16:23:21.177Z,19.65
2018-09-25T16:25:55.027Z,19.26
2018-09-25T16:28:28.840Z,19.07
2018-09-25T16:31:02.533Z,19.04
2018-09-25T16:33:36.339Z,19.10
2018-09-25T16:36:10.190Z,20.59
2018-09-25T16:38:43.902Z,23.46
2018-09-25T16:41:17.729Z,25.67
2018-09-25T16:43:51.618Z,25.47
2018-09-25T16:46:25.690Z,24.32
2018-09-25T16:48:59.573Z,23.29
2018-09-25T16:51:33.214Z,23.84
2018-09-25T16:54:07.289Z,24.44
2018-09-25T16:56:41.046Z,23.37
2018-09-25T16:59:15.158Z,22.33
2018-09-25T17:01:49.007Z,20.20
2018-09-25T17:04:23.061Z,18.79
2018-09-25T17:06:56.683Z,17.84
2018-09-25T17:09:30.620Z,17.03
2018-09-25T17:12:04.430Z,16.64
2018-09-25T17:14:38.133Z,16.38
2018-09-25T17:17:12.003Z,16.13
2018-09-25T17:19:45.710Z,15.85
2018-09-25T17:22:19.533Z,15.74
2018-09-25T17:24:53.368Z,15.53
2018-09-25T17:27:27.156Z,15.42
2018-09-25T17:30:01.024Z,15.36
2018-09-25T17:32:34.522Z,15.28
2018-09-25T17:35:08.626Z,15.22
2018-09-25T17:37:42.708Z,15.11
2018-09-25T17:40:16.605Z,14.96
2018-09-25T17:42:50.612Z,14.79
2018-09-25T17:45:24.589Z,14.64
2018-09-25T17:47:58.289Z,14.70
2018-09-25T17:50:32.098Z,14.71
2018-09-25T17:53:05.925Z,14.37
2018-09-25T17:55:40.019Z,14.17
2018-09-25T17:58:13.956Z,14.04
2018-09-25T18:00:47.795Z,14.24
2018-09-25T18:03:21.638Z,14.16
2018-09-25T18:05:55.341Z,14.13
2018-09-25T18:08:29.226Z,13.96
2018-09-25T18:11:03.373Z,13.83
2018-09-25T18:13:37.321Z,13.78
2018-09-25T18:16:11.393Z,13.81
2018-09-25T18:18:45.298Z,13.74
2018-09-25T18:21:19.116Z,13.75
2018-09-25T18:23:53.171Z,13.87
2018-09-25T18:26:26.958Z,13.87
2018-09-25T18:29:00.950Z,13.69
2018-09-25T18:31:34.928Z,13.57
2018-09-25T18:34:08.907Z,13.56
2018-09-25T18:36:42.943Z,13.47
2018-09-25T18:39:16.890Z,13.35
2018-09-25T18:41:50.841Z,13.33
2018-09-25T18:44:24.623Z,13.16
2018-09-25T18:46:58.310Z,13.07
2018-09-25T18:49:32.243Z,13.05
2018-09-25T18:52:06.314Z,13.07
2018-09-25T18:54:40.229Z,12.91
2018-09-25T18:57:13.997Z,12.76
2018-09-25T18:59:47.997Z,12.70
2018-09-25T19:02:21.618Z,12.56
2018-09-25T19:04:55.407Z,12.69
2018-09-25T19:07:29.322Z,12.67
2018-09-25T19:10:03.220Z,12.52
2018-09-25T19:12:37.150Z,12.37
2018-09-25T19:15:10.959Z,12.25
2018-09-25T19:17:44.747Z,12.39
2018-09-25T19:20:19.135Z,12.30
2018-09-25T19:22:52.974Z,12.25
2018-09-25T19:25:26.955Z,12.05
2018-09-25T19:28:00.664Z,11.92
2018-09-25T19:30:34.642Z,11.94
2018-09-25T19:33:08.754Z,11.77
2018-09-25T19:35:42.720Z,11.71
2018-09-25T19:38:19.736Z,11.90
2018-09-25T19:40:53.441Z,11.90
2018-09-25T19:43:27.330Z,11.73
2018-09-25T19:46:01.194Z,12.02
2018-09-25T19:48:34.924Z,11.95
2018-09-25T19:51:08.855Z,11.87
2018-09-25T19:53:42.594Z,11.60
2018-09-25T19:56:16.552Z,11.47
2018-09-25T19:58:50.499Z,11.33
2018-09-25T20:01:24.296Z,11.38
2018-09-25T20:03:58.117Z,11.14
2018-09-25T20:06:31.918Z,11.05
2018-09-25T20:09:05.694Z,10.97
2018-09-25T20:11:39.393Z,10.97
2018-09-25T20:14:13.259Z,11.05
2018-09-25T20:16:47.076Z,10.92
2018-09-25T20:19:20.950Z,10.78
2018-09-25T20:21:54.602Z,10.68
2018-09-25T20:24:28.473Z,10.62
2018-09-25T20:27:02.516Z,10.59
2018-09-25T20:29:36.743Z,10.66
2018-09-25T20:32:10.541Z,10.82
2018-09-25T20:34:44.337Z,10.71
2018-09-25T20:37:18.018Z,10.83
2018-09-25T20:39:51.911Z,10.76
2018-09-25T20:42:25.547Z,10.60
2018-09-25T20:44:59.168Z,10.49
2018-09-25T20:47:33.010Z,10.33
2018-09-25T20:50:06.886Z,10.24
2018-09-25T20:52:40.578Z,10.10
2018-09-25T20:55:14.418Z,9.91
2018-09-25T20:57:48.430Z,9.77
2018-09-25T21:00:22.306Z,9.63
2018-09-25T21:02:56.079Z,9.66
2018-09-25T21:05:30.175Z,9.48
2018-09-25T21:08:03.799Z,9.47
2018-09-25T21:10:37.445Z,9.38
2018-09-25T21:13:11.129Z,9.50
2018-09-25T21:15:44.977Z,9.57
2018-09-25T21:18:18.834Z,9.71
2018-09-25T21:20:52.740Z,9.56
2018-09-25T21:23:26.562Z,9.51
2018-09-25T21:26:00.485Z,9.46
2018-09-25T21:28:34.285Z,9.43
2018-09-25T21:31:08.213Z,9.45
2018-09-25T21:33:42.106Z,9.41
2018-09-25T21:36:16.131Z,9.44
2018-09-25T21:38:49.823Z,9.47
2018-09-25T21:41:23.742Z,9.48
2018-09-25T21:43:57.435Z,9.57
2018-09-25T21:46:31.138Z,9.50
2018-09-25T21:49:04.767Z,9.84
2018-09-25T21:51:38.832Z,9.78
2018-09-25T21:54:12.706Z,9.73
2018-09-25T21:56:46.455Z,9.66
2018-09-25T21:59:20.225Z,9.51
2018-09-25T22:01:54.288Z,9.37
2018-09-25T22:04:28.099Z,9.29
2018-09-25T22:07:01.902Z,9.23
2018-09-25T22:09:35.569Z,9.03
2018-09-25T22:12:09.355Z,8.87
2018-09-25T22:14:43.295Z,8.73
2018-09-25T22:17:17.222Z,8.71
2018-09-25T22:19:51.314Z,8.56
2018-09-25T22:22:25.345Z,8.45
2018-09-25T22:24:59.043Z,8.34
2018-09-25T22:27:32.841Z,8.47
2018-09-25T22:30:06.761Z,8.43
2018-09-25T22:32:40.670Z,8.51
2018-09-25T22:35:14.550Z,8.34
2018-09-25T22:37:48.402Z,8.20
2018-09-25T22:40:22.354Z,8.05
2018-09-25T22:42:56.294Z,7.99
2018-09-25T22:45:29.998Z,8.00
2018-09-25T22:48:03.865Z,7.95
2018-09-25T22:50:37.594Z,7.91
2018-09-25T22:53:11.292Z,7.87
2018-09-25T22:55:45.078Z,7.80
2018-09-25T22:58:18.838Z,7.77
2018-09-25T23:00:52.643Z,7.65
2018-09-25T23:03:26.370Z,7.56
2018-09-25T23:06:00.221Z,7.60
2018-09-25T23:08:34.030Z,7.49
2018-09-25T23:11:07.821Z,7.44
2018-09-25T23:13:41.609Z,7.40
2018-09-25T23:16:15.606Z,7.38
2018-09-25T23:18:49.447Z,7.41
2018-09-25T23:21:23.213Z,7.48
2018-09-25T23:23:57.026Z,7.44
2018-09-25T23:26:30.674Z,7.37
2018-09-25T23:29:04.381Z,7.32
2018-09-25T23:31:38.346Z,7.47
2018-09-25T23:34:12.364Z,7.43
2018-09-25T23:36:46.345Z,7.43
2018-09-25T23:39:20.044Z,7.37
2018-09-25T23:41:51.489Z,7.44
2018-09-25T23:44:45.215Z,7.45
2018-09-25T23:47:22.010Z,7.34
2018-09-25T23:49:55.578Z,7.27
2018-09-25T23:52:30.745Z,7.20
2018-09-25T23:55:39.497Z,7.10
2018-09-25T23:58:47.182Z,7.02
